createdAt,value
2024-01-10T00:02:01.353Z,-5.63
2024-01-10T00:04:28.220Z,-5.62
2024-01-10T00:06:55.077Z,-5.68
2024-01-10T00:09:21.915Z,-5.80
2024-01-10T00:11:48.794Z,-5.71
2024-01-10T00:14:15.755Z,-5.61
2024-01-10T00:16:42.693Z,-5.62
2024-01-10T00:19:09.562Z,-5.60
2024-01-10T00:21:39.279Z,-5.62
2024-01-10T00:24:06.290Z,-5.70
2024-01-10T00:26:33.219Z,-5.81
2024-01-10T00:29:05.156Z,-5.89
2024-01-10T00:31:33.025Z,-5.85
2024-01-10T00:34:00.000Z,-6.00
2024-01-10T00:36:27.472Z,-6.08
2024-01-10T00:38:54.350Z,-5.96
2024-01-10T00:41:21.404Z,-6.14
2024-01-10T00:43:48.496Z,-6.26
2024-01-10T00:46:15.624Z,-6.23
2024-01-10T00:48:42.592Z,-6.09
2024-01-10T00:51:10.518Z,-6.18
2024-01-10T00:53:37.572Z,-6.22
2024-01-10T00:56:04.989Z,-6.08
2024-01-10T00:58:35.041Z,-5.97
2024-01-10T01:01:02.063Z,-5.87
2024-01-10T01:03:29.134Z,-6.06
2024-01-10T01:05:56.181Z,-5.94
2024-01-10T01:08:23.311Z,-6.00
2024-01-10T01:10:50.290Z,-5.74
2024-01-10T01:13:17.173Z,-6.02
2024-01-10T01:15:45.044Z,-6.10
2024-01-10T01:18:14.492Z,-6.01
2024-01-10T01:20:41.723Z,-5.88
2024-01-10T01:23:08.679Z,-5.73
2024-01-10T01:25:35.772Z,-5.92
2024-01-10T01:28:02.843Z,-5.98
2024-01-10T01:30:29.889Z,-5.96
2024-01-10T01:32:56.989Z,-5.92
2024-01-10T01:35:25.083Z,-5.93
2024-01-10T01:37:53.051Z,-5.95
2024-01-10T01:40:20.524Z,-5.89
2024-01-10T01:42:47.701Z,-5.94
2024-01-10T01:45:14.982Z,-6.02
2024-01-10T01:47:42.560Z,-5.82
2024-01-10T01:50:10.315Z,-5.91
2024-01-10T01:52:37.930Z,-5.88
2024-01-10T01:55:06.936Z,-5.83
2024-01-10T01:57:34.483Z,-5.88
2024-01-10T02:00:01.612Z,-5.74
2024-01-10T02:02:30.026Z,-5.79
2024-01-10T02:04:57.006Z,-5.52
2024-01-10T02:07:24.066Z,-5.58
2024-01-10T02:09:50.989Z,-5.49
2024-01-10T02:12:18.169Z,-5.51
2024-01-10T02:14:45.248Z,-5.42
2024-01-10T02:17:12.161Z,-5.38
2024-01-10T02:19:39.110Z,-5.29
2024-01-10T02:22:05.950Z,-5.37
2024-01-10T02:24:32.847Z,-5.50
2024-01-10T02:26:59.924Z,-5.52
2024-01-10T02:29:27.396Z,-5.40
2024-01-10T02:31:54.323Z,-5.44
2024-01-10T02:34:21.446Z,-5.39
2024-01-10T02:36:48.320Z,-5.42
2024-01-10T02:39:15.171Z,-5.58
2024-01-10T02:41:42.004Z,-5.43
2024-01-10T02:44:08.908Z,-5.47
2024-01-10T02:46:35.814Z,-5.50
2024-01-10T02:49:02.782Z,-5.43
2024-01-10T02:51:31.627Z,-5.44
2024-01-10T02:53:58.433Z,-5.33
2024-01-10T02:56:25.302Z,-5.35
2024-01-10T02:58:52.185Z,-5.32
2024-01-10T03:01:19.177Z,-5.40
2024-01-10T03:03:46.211Z,-5.37
2024-01-10T03:06:13.173Z,-5.58
2024-01-10T03:08:40.391Z,-5.46
2024-01-10T03:11:07.615Z,-5.59
2024-01-10T03:13:34.488Z,-5.74
2024-01-10T03:16:01.350Z,-5.82
2024-01-10T03:18:28.303Z,-5.72
2024-01-10T03:20:55.447Z,-5.78
2024-01-10T03:23:23.381Z,-5.74
2024-01-10T03:25:50.859Z,-5.69
2024-01-10T03:28:18.926Z,-5.72
2024-01-10T03:30:46.415Z,-5.75
2024-01-10T03:33:13.459Z,-5.66
2024-01-10T03:35:41.054Z,-5.75
2024-01-10T03:38:08.048Z,-5.64
2024-01-10T03:40:35.859Z,-5.61
2024-01-10T03:43:02.675Z,-5.48
2024-01-10T03:45:29.955Z,-5.62
2024-01-10T03:47:57.016Z,-5.68
2024-01-10T03:50:23.981Z,-5.71
2024-01-10T03:52:51.500Z,-5.73
2024-01-10T03:55:18.460Z,-5.77
2024-01-10T03:57:45.446Z,-5.80
2024-01-10T04:00:15.999Z,-5.82
2024-01-10T04:02:43.056Z,-5.83
2024-01-10T04:05:14.662Z,-5.89
2024-01-10T04:07:45.410Z,-5.92
2024-01-10T04:10:15.737Z,-5.86
2024-01-10T04:12:43.563Z,-5.88
2024-01-10T04:15:10.734Z,-5.89
2024-01-10T04:17:37.765Z,-5.84
2024-01-10T04:20:05.559Z,-5.86
2024-01-10T04:22:33.343Z,-5.84
2024-01-10T04:25:01.515Z,-5.74
2024-01-10T04:27:30.924Z,-5.81
2024-01-10T04:29:57.815Z,-5.88
2024-01-10T04:32:24.923Z,-5.95
2024-01-10T04:34:51.968Z,-5.91
2024-01-10T04:37:19.719Z,-6.05
2024-01-10T04:39:46.880Z,-5.83
2024-01-10T04:42:14.411Z,-5.91
2024-01-10T04:44:41.222Z,-5.93
2024-01-10T04:47:09.186Z,-5.93
2024-01-10T04:49:36.225Z,-5.90
2024-01-10T04:52:03.859Z,-5.95
2024-01-10T04:54:30.802Z,-5.97
2024-01-10T04:56:57.662Z,-6.02
2024-01-10T04:59:24.512Z,-5.98
2024-01-10T05:01:51.496Z,-5.98
2024-01-10T05:04:18.634Z,-6.07
2024-01-10T05:06:45.429Z,-6.16
2024-01-10T05:09:13.228Z,-6.02
2024-01-10T05:11:42.221Z,-6.08
2024-01-10T05:14:09.797Z,-6.01
2024-01-10T05:16:36.888Z,-6.05
2024-01-10T05:19:07.227Z,-6.09
2024-01-10T05:21:35.036Z,-6.05
2024-01-10T05:24:01.881Z,-5.89
2024-01-10T05:26:28.737Z,-6.00
2024-01-10T05:28:55.566Z,-5.96
2024-01-10T05:31:22.469Z,-5.98
2024-01-10T05:33:49.415Z,-5.96
2024-01-10T05:36:16.356Z,-5.76
2024-01-10T05:38:43.267Z,-5.78
2024-01-10T05:41:10.937Z,-5.85
2024-01-10T05:43:38.275Z,-5.87
2024-01-10T05:46:07.758Z,-5.89
2024-01-10T05:48:34.651Z,-5.93
2024-01-10T05:51:02.362Z,-6.01
2024-01-10T05:53:29.956Z,-5.89
2024-01-10T05:55:57.078Z,-5.95
2024-01-10T05:58:24.383Z,-5.94
2024-01-10T06:00:51.230Z,-5.77
2024-01-10T06:03:18.273Z,-5.82
2024-01-10T06:05:45.309Z,-5.77
2024-01-10T06:08:12.533Z,-5.78
2024-01-10T06:10:40.068Z,-5.71
2024-01-10T06:13:06.873Z,-5.76
2024-01-10T06:15:33.945Z,-5.77
2024-01-10T06:18:00.882Z,-5.86
2024-01-10T06:20:28.128Z,-5.95
2024-01-10T06:22:55.627Z,-6.07
2024-01-10T06:25:22.494Z,-5.91
2024-01-10T06:27:49.397Z,-5.90
2024-01-10T06:30:16.380Z,-5.89
2024-01-10T06:32:43.231Z,-5.89
2024-01-10T06:35:13.146Z,-5.81
2024-01-10T06:37:40.378Z,-5.90
2024-01-10T06:40:07.932Z,-5.76
2024-01-10T06:42:34.819Z,-5.72
2024-01-10T06:45:01.695Z,-5.81
2024-01-10T06:47:28.836Z,-5.81
2024-01-10T06:49:58.397Z,-5.83
2024-01-10T06:52:25.254Z,-5.88
2024-01-10T06:54:52.029Z,-5.94
2024-01-10T06:57:19.272Z,-5.85
2024-01-10T06:59:46.183Z,-5.83
2024-01-10T07:02:13.172Z,-5.82
2024-01-10T07:04:40.179Z,-5.92
2024-01-10T07:07:07.238Z,-5.92
2024-01-10T07:09:34.008Z,-5.73
2024-01-10T07:12:01.099Z,-5.86
2024-01-10T07:14:28.061Z,-5.83
2024-01-10T07:16:58.488Z,-5.78
2024-01-10T07:19:25.566Z,-5.78
2024-01-10T07:21:52.497Z,-5.70
2024-01-10T07:24:19.387Z,-5.68
2024-01-10T07:26:46.288Z,-5.68
2024-01-10T07:29:13.189Z,-5.76
2024-01-10T07:31:40.561Z,-5.75
2024-01-10T07:34:07.885Z,-5.74
2024-01-10T07:36:37.919Z,-5.72
2024-01-10T07:39:05.109Z,-5.63
2024-01-10T07:41:32.134Z,-5.52
2024-01-10T07:43:59.262Z,-5.65
2024-01-10T07:46:28.544Z,-5.56
2024-01-10T07:48:55.526Z,-5.57
2024-01-10T07:51:23.275Z,-5.53
2024-01-10T07:53:50.117Z,-5.43
2024-01-10T07:56:17.387Z,-5.42
2024-01-10T07:58:44.283Z,-5.35
2024-01-10T08:01:12.680Z,-5.37
2024-01-10T08:03:40.956Z,-5.35
2024-01-10T08:06:15.260Z,-5.34
2024-01-10T08:08:47.758Z,-5.09
2024-01-10T08:11:14.542Z,-5.09
2024-01-10T08:13:41.679Z,-5.06
2024-01-10T08:16:10.192Z,-5.12
2024-01-10T08:18:37.196Z,-4.92
2024-01-10T08:21:05.741Z,-4.82
2024-01-10T08:23:32.644Z,-4.71
2024-01-10T08:25:59.482Z,-4.74
2024-01-10T08:28:27.717Z,-4.66
2024-01-10T08:31:02.724Z,-4.37
2024-01-10T08:33:32.170Z,-4.47
2024-01-10T08:36:00.566Z,-4.47
2024-01-10T08:38:27.694Z,-4.54
2024-01-10T08:40:54.792Z,-4.32
2024-01-10T08:43:21.686Z,-4.35
2024-01-10T08:45:48.523Z,-4.28
2024-01-10T08:48:15.637Z,-4.22
2024-01-10T08:50:42.943Z,-4.13
2024-01-10T08:53:11.608Z,-4.19
2024-01-10T08:55:38.726Z,-4.08
2024-01-10T08:58:08.921Z,-3.97
2024-01-10T09:00:35.941Z,-3.81
2024-01-10T09:03:03.840Z,-3.60
2024-01-10T09:05:30.703Z,-3.53
2024-01-10T09:07:58.329Z,-3.18
2024-01-10T09:10:30.045Z,-2.96
2024-01-10T09:12:59.722Z,-2.69
2024-01-10T09:15:26.638Z,-2.41
2024-01-10T09:17:53.673Z,-2.51
2024-01-10T09:20:22.289Z,-2.28
2024-01-10T09:22:50.603Z,-2.86
2024-01-10T09:25:17.577Z,-2.49
2024-01-10T09:27:46.296Z,-2.13
2024-01-10T09:30:13.756Z,-2.02
2024-01-10T09:32:40.871Z,-2.05
2024-01-10T09:35:08.480Z,-1.51
2024-01-10T09:37:35.336Z,-0.97
2024-01-10T09:40:02.309Z,-1.42
2024-01-10T09:42:34.433Z,-1.77
2024-01-10T09:45:01.949Z,-1.78
2024-01-10T09:47:29.186Z,-1.68
2024-01-10T09:49:56.724Z,-1.57
2024-01-10T09:52:29.187Z,-1.24
2024-01-10T09:54:58.089Z,-1.70
2024-01-10T09:57:26.865Z,-1.84
2024-01-10T09:59:55.857Z,-1.38
2024-01-10T10:02:26.086Z,-1.51
2024-01-10T10:05:04.003Z,-1.43
2024-01-10T10:07:31.286Z,-1.53
2024-01-10T10:09:58.254Z,-1.46
2024-01-10T10:12:43.401Z,-1.65
2024-01-10T10:15:15.108Z,-1.72
2024-01-10T10:17:48.778Z,-1.56
2024-01-10T10:20:16.586Z,-1.50
2024-01-10T10:23:00.825Z,-1.34
2024-01-10T10:25:39.524Z,-1.40
2024-01-10T10:28:07.351Z,-1.28
2024-01-10T10:30:35.853Z,-1.13
2024-01-10T10:33:03.979Z,-0.75
2024-01-10T10:35:38.044Z,0.07
2024-01-10T10:38:10.828Z,0.55
2024-01-10T10:40:37.887Z,1.31
2024-01-10T10:43:06.315Z,1.78
2024-01-10T10:45:34.946Z,1.53
2024-01-10T10:48:03.577Z,1.69
2024-01-10T10:50:38.124Z,2.13
2024-01-10T10:53:05.778Z,1.52
2024-01-10T10:55:35.651Z,1.27
2024-01-10T10:58:11.329Z,1.46
2024-01-10T11:00:41.003Z,1.73
2024-01-10T11:03:15.429Z,2.07
2024-01-10T11:05:45.730Z,2.79
2024-01-10T11:08:17.497Z,2.35
2024-01-10T11:10:48.098Z,1.44
2024-01-10T11:13:37.443Z,2.49
2024-01-10T11:16:22.602Z,1.81
2024-01-10T11:19:11.946Z,1.81
2024-01-10T11:21:48.745Z,1.48
2024-01-10T11:24:19.504Z,2.79
2024-01-10T11:26:47.310Z,2.72
2024-01-10T11:29:14.567Z,2.95
2024-01-10T11:31:41.544Z,2.37
2024-01-10T11:34:10.219Z,2.83
2024-01-10T11:36:37.087Z,2.71
2024-01-10T11:39:08.022Z,3.19
2024-01-10T11:41:41.674Z,2.77
2024-01-10T11:44:22.594Z,2.50
2024-01-10T11:46:52.281Z,2.78
2024-01-10T11:49:20.850Z,3.10
2024-01-10T11:51:53.486Z,2.99
2024-01-10T11:54:43.287Z,2.75
2024-01-10T11:57:33.652Z,2.46
2024-01-10T12:00:02.196Z,2.39
2024-01-10T12:02:31.390Z,2.49
2024-01-10T12:04:58.936Z,1.76
2024-01-10T12:07:27.288Z,1.57
2024-01-10T12:09:54.550Z,2.76
2024-01-10T12:12:21.778Z,2.21
2024-01-10T12:14:48.775Z,2.53
2024-01-10T12:17:15.969Z,2.64
2024-01-10T12:19:47.424Z,2.65
2024-01-10T12:22:15.067Z,3.43
2024-01-10T12:24:52.781Z,2.78
2024-01-10T12:27:22.697Z,2.40
2024-01-10T12:29:52.567Z,2.11
2024-01-10T12:32:22.394Z,3.60
2024-01-10T12:34:52.419Z,3.28
2024-01-10T12:37:22.024Z,2.95
2024-01-10T12:39:48.981Z,3.00
2024-01-10T12:42:17.133Z,2.63
2024-01-10T12:44:45.729Z,3.08
2024-01-10T12:47:23.193Z,2.86
2024-01-10T12:49:50.391Z,2.62
2024-01-10T12:52:19.605Z,2.27
2024-01-10T12:54:48.460Z,1.70
2024-01-10T12:57:15.233Z,2.75
2024-01-10T12:59:42.137Z,2.74
2024-01-10T13:02:08.989Z,2.63
2024-01-10T13:04:37.146Z,2.75
2024-01-10T13:07:04.179Z,3.03
2024-01-10T13:09:31.025Z,3.02
2024-01-10T13:11:58.083Z,2.82
2024-01-10T13:14:24.933Z,2.97
2024-01-10T13:16:59.303Z,2.84
2024-01-10T13:19:30.361Z,1.79
2024-01-10T13:22:00.458Z,2.67
2024-01-10T13:24:31.087Z,2.69
2024-01-10T13:26:57.951Z,2.60
2024-01-10T13:29:27.030Z,2.47
2024-01-10T13:31:53.904Z,2.37
2024-01-10T13:34:21.378Z,1.68
2024-01-10T13:36:49.020Z,2.09
2024-01-10T13:39:16.890Z,2.35
2024-01-10T13:41:43.892Z,2.09
2024-01-10T13:44:11.194Z,3.55
2024-01-10T13:46:38.072Z,2.70
2024-01-10T13:49:04.915Z,2.44
2024-01-10T13:51:32.262Z,2.71
2024-01-10T13:54:02.107Z,2.66
2024-01-10T13:56:29.617Z,3.09
2024-01-10T13:58:58.952Z,2.60
2024-01-10T14:01:25.937Z,3.22
2024-01-10T14:03:53.103Z,2.48
2024-01-10T14:06:20.164Z,2.63
2024-01-10T14:08:50.129Z,2.85
2024-01-10T14:11:17.256Z,2.94
2024-01-10T14:13:44.041Z,2.80
2024-01-10T14:16:12.368Z,2.96
2024-01-10T14:18:39.206Z,2.20
2024-01-10T14:21:09.273Z,2.15
2024-01-10T14:23:39.344Z,3.26
2024-01-10T14:26:06.972Z,3.01
2024-01-10T14:28:34.241Z,2.77
2024-01-10T14:31:09.914Z,2.70
2024-01-10T14:33:46.388Z,2.77
2024-01-10T14:36:13.516Z,2.11
2024-01-10T14:38:41.099Z,1.50
2024-01-10T14:41:10.879Z,1.21
2024-01-10T14:43:39.028Z,0.84
2024-01-10T14:46:06.939Z,0.47
2024-01-10T14:48:34.628Z,0.51
2024-01-10T14:51:04.820Z,0.39
2024-01-10T14:53:32.588Z,0.28
2024-01-10T14:55:59.501Z,0.14
2024-01-10T14:58:26.379Z,-0.04
2024-01-10T15:00:53.305Z,0.02
2024-01-10T15:03:26.430Z,-0.03
2024-01-10T15:05:55.158Z,-0.07
2024-01-10T15:08:22.241Z,-0.15
2024-01-10T15:10:49.223Z,-0.21
2024-01-10T15:13:19.345Z,-0.30
2024-01-10T15:15:46.362Z,-0.31
2024-01-10T15:18:13.263Z,-0.34
2024-01-10T15:20:40.302Z,-0.34
2024-01-10T15:23:07.496Z,-0.45
2024-01-10T15:25:34.940Z,-0.53
2024-01-10T15:28:04.842Z,-0.60
2024-01-10T15:30:41.292Z,-0.68
2024-01-10T15:33:14.113Z,-0.74
2024-01-10T15:35:40.982Z,-0.76
2024-01-10T15:38:07.781Z,-0.88
2024-01-10T15:40:35.332Z,-0.85
2024-01-10T15:43:03.810Z,-0.90
2024-01-10T15:45:33.150Z,-0.91
2024-01-10T15:48:00.227Z,-1.09
2024-01-10T15:50:27.218Z,-1.09
2024-01-10T15:52:54.285Z,-1.11
2024-01-10T15:55:21.256Z,-1.14
2024-01-10T15:57:48.144Z,-1.22
2024-01-10T16:00:16.056Z,-1.33
2024-01-10T16:02:43.518Z,-1.40
2024-01-10T16:05:10.916Z,-1.36
2024-01-10T16:07:37.879Z,-1.30
2024-01-10T16:10:04.914Z,-1.35
2024-01-10T16:12:32.277Z,-1.45
2024-01-10T16:14:59.141Z,-1.50
2024-01-10T16:17:29.170Z,-1.53
2024-01-10T16:19:56.225Z,-1.55
2024-01-10T16:22:23.034Z,-1.70
2024-01-10T16:24:50.115Z,-1.76
2024-01-10T16:27:19.293Z,-1.78
2024-01-10T16:29:46.165Z,-1.73
2024-01-10T16:32:13.134Z,-1.64
2024-01-10T16:34:40.046Z,-1.64
2024-01-10T16:37:07.825Z,-1.74
2024-01-10T16:39:34.660Z,-1.98
2024-01-10T16:42:01.636Z,-2.04
2024-01-10T16:44:28.516Z,-1.79
2024-01-10T16:46:57.475Z,-1.74
2024-01-10T16:49:25.077Z,-1.89
2024-01-10T16:51:52.594Z,-1.98
2024-01-10T16:54:19.568Z,-1.81
2024-01-10T16:56:46.490Z,-2.05
2024-01-10T16:59:14.144Z,-2.00
2024-01-10T17:01:41.055Z,-2.17
2024-01-10T17:04:08.888Z,-2.14
2024-01-10T17:06:35.921Z,-2.17
2024-01-10T17:09:03.300Z,-2.21
2024-01-10T17:11:30.292Z,-2.18
2024-01-10T17:13:57.277Z,-2.19
2024-01-10T17:16:24.110Z,-2.28
2024-01-10T17:18:51.897Z,-2.13
2024-01-10T17:21:18.951Z,-2.18
2024-01-10T17:23:49.467Z,-2.26
2024-01-10T17:26:16.701Z,-2.16
2024-01-10T17:28:43.752Z,-2.25
2024-01-10T17:31:12.101Z,-2.31
2024-01-10T17:33:39.277Z,-2.56
2024-01-10T17:36:06.903Z,-2.54
2024-01-10T17:38:34.033Z,-2.72
2024-01-10T17:41:01.183Z,-2.81
2024-01-10T17:43:28.268Z,-2.79
2024-01-10T17:45:56.003Z,-2.86
2024-01-10T17:48:23.293Z,-2.90
2024-01-10T17:50:50.384Z,-2.89
2024-01-10T17:53:17.876Z,-2.97
2024-01-10T17:55:48.728Z,-2.98
2024-01-10T17:58:15.938Z,-2.93
2024-01-10T18:00:45.459Z,-2.81
2024-01-10T18:03:13.182Z,-2.85
2024-01-10T18:05:45.701Z,-3.05
2024-01-10T18:08:12.916Z,-3.11
2024-01-10T18:10:41.949Z,-2.99
2024-01-10T18:13:08.823Z,-3.10
2024-01-10T18:15:36.171Z,-2.99
2024-01-10T18:18:03.204Z,-3.08
2024-01-10T18:20:30.287Z,-3.17
2024-01-10T18:22:57.172Z,-3.27
2024-01-10T18:25:25.402Z,-3.24
2024-01-10T18:27:52.311Z,-3.31
2024-01-10T18:30:22.567Z,-3.28
2024-01-10T18:32:52.997Z,-3.34
2024-01-10T18:35:22.654Z,-3.33
2024-01-10T18:37:49.995Z,-3.40
2024-01-10T18:40:17.112Z,-3.45
2024-01-10T18:42:44.138Z,-3.50
2024-01-10T18:45:11.108Z,-3.48
2024-01-10T18:47:38.414Z,-3.49
2024-01-10T18:50:06.351Z,-3.42
2024-01-10T18:52:33.256Z,-3.45
2024-01-10T18:55:00.322Z,-3.45
2024-01-10T18:57:27.813Z,-3.53
2024-01-10T18:59:55.078Z,-3.67
2024-01-10T19:02:22.990Z,-3.75
2024-01-10T19:04:50.870Z,-3.83
2024-01-10T19:07:17.735Z,-3.75
2024-01-10T19:09:45.092Z,-3.84
2024-01-10T19:12:11.981Z,-3.77
2024-01-10T19:14:39.175Z,-3.76
2024-01-10T19:17:06.385Z,-3.84
2024-01-10T19:19:38.014Z,-3.72
2024-01-10T19:22:07.822Z,-3.85
2024-01-10T19:24:35.039Z,-3.88
2024-01-10T19:27:02.222Z,-3.95
2024-01-10T19:29:29.475Z,-3.97
2024-01-10T19:31:56.733Z,-3.92
2024-01-10T19:34:24.444Z,-3.83
2024-01-10T19:36:52.205Z,-3.77
2024-01-10T19:39:19.452Z,-3.87
2024-01-10T19:41:47.070Z,-3.86
2024-01-10T19:44:14.339Z,-3.90
2024-01-10T19:46:42.603Z,-3.84
2024-01-10T19:49:09.579Z,-3.95
2024-01-10T19:51:36.602Z,-4.11
2024-01-10T19:54:03.843Z,-4.07
2024-01-10T19:56:33.201Z,-4.21
2024-01-10T19:59:01.275Z,-4.07
2024-01-10T20:01:28.253Z,-4.14
2024-01-10T20:03:55.553Z,-4.21
2024-01-10T20:06:22.680Z,-4.32
2024-01-10T20:08:49.929Z,-4.28
2024-01-10T20:11:17.067Z,-4.30
2024-01-10T20:13:44.925Z,-4.31
2024-01-10T20:16:12.074Z,-4.34
2024-01-10T20:18:39.256Z,-4.27
2024-01-10T20:21:09.262Z,-4.26
2024-01-10T20:23:36.244Z,-4.37
2024-01-10T20:26:03.229Z,-4.44
2024-01-10T20:28:30.203Z,-4.52
2024-01-10T20:30:57.681Z,-4.55
2024-01-10T20:33:24.706Z,-4.60
2024-01-10T20:35:52.393Z,-4.62
2024-01-10T20:38:19.472Z,-4.68
2024-01-10T20:40:46.481Z,-4.60
2024-01-10T20:43:13.410Z,-4.65
2024-01-10T20:45:40.309Z,-4.64
2024-01-10T20:48:10.503Z,-4.69
2024-01-10T20:50:40.732Z,-4.66
2024-01-10T20:53:07.702Z,-4.66
2024-01-10T20:55:34.834Z,-4.80
2024-01-10T20:58:01.869Z,-4.72
2024-01-10T21:00:28.786Z,-4.75
2024-01-10T21:02:55.986Z,-4.69
2024-01-10T21:05:23.033Z,-4.70
2024-01-10T21:07:51.462Z,-4.79
2024-01-10T21:10:19.578Z,-4.95
2024-01-10T21:12:46.868Z,-4.87
2024-01-10T21:15:13.843Z,-4.85
2024-01-10T21:17:40.913Z,-4.71
2024-01-10T21:20:08.817Z,-4.74
2024-01-10T21:22:35.783Z,-4.81
2024-01-10T21:25:02.679Z,-4.84
2024-01-10T21:27:29.680Z,-4.79
2024-01-10T21:29:56.619Z,-4.96
2024-01-10T21:32:23.670Z,-5.02
2024-01-10T21:34:50.830Z,-5.11
2024-01-10T21:37:19.212Z,-4.99
2024-01-10T21:39:46.404Z,-5.00
2024-01-10T21:42:13.233Z,-5.11
2024-01-10T21:44:40.253Z,-5.24
2024-01-10T21:47:07.913Z,-5.08
2024-01-10T21:49:35.184Z,-5.15
2024-01-10T21:52:02.183Z,-5.18
2024-01-10T21:54:29.738Z,-5.15
2024-01-10T21:56:56.585Z,-5.21
2024-01-10T21:59:23.634Z,-5.16
2024-01-10T22:01:50.739Z,-5.14
2024-01-10T22:04:17.846Z,-5.29
2024-01-10T22:06:45.436Z,-5.26
2024-01-10T22:09:12.418Z,-5.37
2024-01-10T22:11:39.432Z,-5.32
2024-01-10T22:14:06.374Z,-5.34
2024-01-10T22:16:33.496Z,-5.40
2024-01-10T22:19:00.508Z,-5.41
2024-01-10T22:21:28.231Z,-5.42
2024-01-10T22:23:55.066Z,-5.50
2024-01-10T22:26:22.762Z,-5.48
2024-01-10T22:28:49.718Z,-5.50
2024-01-10T22:31:16.714Z,-5.51
2024-01-10T22:33:44.919Z,-5.53
2024-01-10T22:36:11.909Z,-5.39
2024-01-10T22:38:38.827Z,-5.32
2024-01-10T22:41:05.729Z,-5.39
2024-01-10T22:43:36.020Z,-5.47
2024-01-10T22:46:03.809Z,-5.57
2024-01-10T22:48:31.849Z,-5.58
2024-01-10T22:51:00.449Z,-5.59
2024-01-10T22:53:27.682Z,-5.47
2024-01-10T22:55:54.884Z,-5.54
2024-01-10T22:58:23.385Z,-5.63
2024-01-10T23:00:53.089Z,-5.62
2024-01-10T23:03:20.874Z,-5.65
2024-01-10T23:05:48.054Z,-5.67
2024-01-10T23:08:15.153Z,-5.65
2024-01-10T23:10:42.108Z,-5.71
2024-01-10T23:13:09.171Z,-5.83
2024-01-10T23:15:36.201Z,-5.82
2024-01-10T23:18:03.626Z,-5.86
2024-01-10T23:20:30.797Z,-5.87
2024-01-10T23:22:57.701Z,-5.89
2024-01-10T23:25:24.726Z,-5.96
2024-01-10T23:27:51.834Z,-5.92
2024-01-10T23:30:20.101Z,-5.94
2024-01-10T23:32:48.111Z,-6.00
2024-01-10T23:35:15.444Z,-5.96
2024-01-10T23:37:42.373Z,-5.96
2024-01-10T23:40:09.975Z,-6.03
2024-01-10T23:42:37.027Z,-5.93
2024-01-10T23:45:04.849Z,-5.96
2024-01-10T23:47:31.821Z,-6.06
2024-01-10T23:49:59.072Z,-6.18
2024-01-10T23:52:25.973Z,-6.17
2024-01-10T23:54:52.829Z,-6.17
2024-01-10T23:57:19.808Z,-6.09
2024-01-10T23:59:46.689Z,-6.17
